Time;durP1;ratioP1;P1;durP2;ratioP2;P2;SDS_P1;SDS_P2;PMS_P1;PMS_P2;Temp;Humidity;BMP_temperature;BMP_pressure;BME280_temperature;BME280_humidity;BME280_pressure;Samples;Min_cycle;Max_cycle;Signal;HPM_P1;HPM_P2
2021/08/11 00:01:52;;;;;;;7.93;3.58;;;17.00;92.70;;;;;;5053457;28;20037;-75
2021/08/11 00:04:18;;;;;;;5.63;3.60;;;17.00;92.70;;;;;;5054324;28;20057;-75
2021/08/11 00:06:43;;;;;;;6.47;3.47;;;17.00;92.80;;;;;;5052908;28;20037;-75
2021/08/11 00:09:09;;;;;;;5.50;3.10;;;16.90;92.90;;;;;;5053567;28;20029;-75
2021/08/11 00:11:35;;;;;;;6.40;3.30;;;16.90;92.90;;;;;;5053892;28;20056;-75
2021/08/11 00:14:02;;;;;;;5.78;3.50;;;16.90;93.00;;;;;;5053545;28;20025;-74
2021/08/11 00:16:28;;;;;;;6.47;3.22;;;16.90;93.00;;;;;;5052775;28;20045;-74
2021/08/11 00:18:57;;;;;;;9.68;3.80;;;16.90;93.10;;;;;;5068800;28;20052;-75
2021/08/11 00:21:22;;;;;;;7.25;3.78;;;16.90;93.10;;;;;;5052540;28;20065;-74
2021/08/11 00:23:48;;;;;;;5.65;3.05;;;16.90;93.10;;;;;;5052948;28;20076;-75
2021/08/11 00:26:14;;;;;;;7.65;3.33;;;16.90;93.10;;;;;;5053592;28;20461;-74
2021/08/11 00:28:40;;;;;;;6.00;3.70;;;16.90;93.10;;;;;;5053987;28;20473;-74
2021/08/11 00:31:06;;;;;;;8.00;3.45;;;16.90;93.20;;;;;;5051833;28;20388;-76
2021/08/11 00:33:31;;;;;;;7.70;3.95;;;16.80;93.20;;;;;;5053613;28;20022;-74
2021/08/11 00:35:57;;;;;;;6.65;3.78;;;16.80;93.20;;;;;;5053006;28;20029;-74
2021/08/11 00:38:23;;;;;;;7.20;3.55;;;16.80;93.20;;;;;;5052404;28;20412;-74
2021/08/11 00:40:49;;;;;;;6.53;3.13;;;16.70;93.20;;;;;;5053273;28;20476;-77
2021/08/11 00:43:15;;;;;;;6.40;3.70;;;16.80;93.30;;;;;;5053798;28;20056;-77
2021/08/11 00:45:41;;;;;;;7.00;3.90;;;16.70;93.20;;;;;;5052749;28;20071;-77
2021/08/11 00:48:09;;;;;;;6.50;3.10;;;16.70;93.30;;;;;;5051541;28;20415;-77
2021/08/11 00:50:36;;;;;;;9.65;4.28;;;16.70;93.30;;;;;;5052114;28;20388;-76
2021/08/11 00:53:04;;;;;;;6.22;3.38;;;16.70;93.30;;;;;;5051446;28;20052;-77
2021/08/11 00:55:34;;;;;;;8.80;3.90;;;16.70;93.70;;;;;;5053366;28;20024;-77
2021/08/11 00:58:02;;;;;;;7.25;3.42;;;16.70;93.40;;;;;;5051499;28;20032;-76
2021/08/11 01:00:28;;;;;;;7.10;3.40;;;16.70;93.40;;;;;;5052000;28;20036;-77
2021/08/11 01:02:54;;;;;;;7.55;3.53;;;16.70;93.40;;;;;;5052291;28;20029;-77
2021/08/11 01:05:20;;;;;;;10.95;3.80;;;16.60;93.30;;;;;;5053203;28;20024;-77
2021/08/11 01:07:48;;;;;;;8.15;4.30;;;16.60;93.30;;;;;;5052848;28;20036;-77
2021/08/11 01:10:15;;;;;;;9.10;3.78;;;16.60;93.40;;;;;;5052460;28;20059;-76
2021/08/11 01:12:41;;;;;;;6.28;3.08;;;16.60;93.40;;;;;;5051622;28;20423;-77
2021/08/11 01:15:07;;;;;;;6.85;3.55;;;16.60;93.40;;;;;;5052077;28;20132;-76
2021/08/11 01:17:33;;;;;;;8.43;3.75;;;16.50;93.40;;;;;;5051636;28;20032;-77
2021/08/11 01:20:03;;;;;;;6.78;3.78;;;16.50;93.40;;;;;;5052093;28;20020;-77
2021/08/11 01:22:52;;;;;;;7.25;3.83;;;16.50;93.50;;;;;;5052919;28;20475;-76
2021/08/11 01:25:32;;;;;;;7.38;3.63;;;16.50;93.60;;;;;;5052994;28;20045;-77
2021/08/11 01:28:32;;;;;;;9.45;3.70;;;16.50;93.70;;;;;;5067690;28;20377;-77
2021/08/11 01:31:13;;;;;;;7.43;3.60;;;16.40;93.70;;;;;;5051961;28;20032;-77
2021/08/11 01:33:51;;;;;;;6.25;3.58;;;16.40;93.70;;;;;;5052754;28;20029;-77
2021/08/11 01:36:47;;;;;;;9.90;4.18;;;16.40;93.70;;;;;;5050995;28;20020;-77
2021/08/11 01:39:34;;;;;;;10.73;3.80;;;16.40;93.70;;;;;;5050748;28;20796;-77
2021/08/11 01:42:25;;;;;;;7.25;3.58;;;16.40;93.70;;;;;;5051893;28;20029;-77
2021/08/11 01:45:06;;;;;;;10.53;3.93;;;16.40;93.70;;;;;;5051356;28;20036;-77
2021/08/11 01:47:38;;;;;;;6.53;3.70;;;16.40;93.80;;;;;;5052627;28;20027;-76
2021/08/11 01:50:06;;;;;;;8.55;3.97;;;16.40;93.70;;;;;;5051844;28;20491;-77
2021/08/11 01:52:34;;;;;;;7.88;3.50;;;16.30;93.70;;;;;;5052385;28;20017;-74
2021/08/11 01:55:01;;;;;;;8.25;3.85;;;16.30;93.70;;;;;;5050309;28;20089;-74
2021/08/11 01:57:27;;;;;;;7.43;4.07;;;16.30;93.70;;;;;;5051905;28;20021;-74
2021/08/11 01:59:54;;;;;;;8.13;3.85;;;16.30;93.70;;;;;;5052150;28;20108;-74
2021/08/11 02:02:21;;;;;;;8.48;3.83;;;16.30;94.00;;;;;;5052364;28;20472;-74
2021/08/11 02:04:48;;;;;;;8.60;4.13;;;16.30;94.10;;;;;;5052171;28;20020;-74
2021/08/11 02:07:15;;;;;;;8.68;3.47;;;16.30;93.80;;;;;;5049916;28;20151;-75
2021/08/11 02:09:41;;;;;;;6.25;3.38;;;16.30;93.90;;;;;;5052095;28;20104;-74
2021/08/11 02:12:09;;;;;;;9.50;4.18;;;16.30;93.90;;;;;;5051427;28;20029;-74
2021/08/11 02:14:34;;;;;;;7.90;4.20;;;16.20;93.90;;;;;;5052000;28;20021;-74
2021/08/11 02:17:00;;;;;;;8.52;3.63;;;16.20;93.90;;;;;;5050117;28;20082;-75
2021/08/11 02:19:26;;;;;;;8.43;3.47;;;16.20;93.90;;;;;;5051947;28;20024;-74
2021/08/11 02:21:51;;;;;;;9.10;3.78;;;16.20;93.90;;;;;;5051563;28;20029;-74
2021/08/11 02:24:18;;;;;;;10.95;4.00;;;16.20;93.90;;;;;;5051374;28;20511;-74
2021/08/11 02:26:52;;;;;;;8.93;4.20;;;16.20;93.90;;;;;;5051812;28;20025;-74
2021/08/11 02:29:43;;;;;;;6.47;3.70;;;16.20;93.80;;;;;;5049915;28;20032;-75
2021/08/11 02:32:27;;;;;;;7.43;3.73;;;16.10;93.90;;;;;;5051012;28;20096;-75
2021/08/11 02:35:01;;;;;;;7.30;3.83;;;16.10;94.00;;;;;;5051432;28;20330;-75
2021/08/11 02:37:55;;;;;;;8.25;4.22;;;16.10;94.00;;;;;;5051844;28;20025;-75
2021/08/11 02:40:47;;;;;;;6.88;3.88;;;16.00;94.00;;;;;;5035485;28;20433;-75
2021/08/11 02:43:32;;;;;;;7.80;3.60;;;16.00;94.10;;;;;;5051208;28;20543;-75
2021/08/11 02:46:03;;;;;;;7.95;4.15;;;15.90;94.00;;;;;;5051127;28;20491;-76
2021/08/11 02:48:30;;;;;;;7.35;3.75;;;15.90;94.00;;;;;;5051829;28;20025;-75
2021/08/11 02:50:56;;;;;;;9.43;4.75;;;15.90;94.00;;;;;;5050388;28;20025;-75
2021/08/11 02:53:25;;;;;;;9.20;4.20;;;15.90;94.00;;;;;;5051420;28;20025;-75
2021/08/11 02:55:51;;;;;;;9.75;4.07;;;15.90;94.10;;;;;;5051456;28;20033;-74
2021/08/11 02:58:19;;;;;;;8.98;4.25;;;15.90;94.10;;;;;;5050931;28;20090;-75
2021/08/11 03:00:49;;;;;;;8.00;3.97;;;15.90;94.10;;;;;;5051589;28;20068;-75
2021/08/11 03:03:17;;;;;;;7.53;4.40;;;15.90;94.10;;;;;;5051073;28;20112;-75
2021/08/11 03:05:42;;;;;;;9.40;4.25;;;15.90;94.10;;;;;;5051291;28;20547;-74
2021/08/11 03:08:09;;;;;;;11.30;4.43;;;15.90;94.00;;;;;;5050889;28;20108;-75
2021/08/11 03:10:38;;;;;;;7.65;4.15;;;15.90;94.10;;;;;;5054449;28;20430;-75
2021/08/11 03:13:06;;;;;;;9.70;4.38;;;15.90;94.10;;;;;;5054338;28;20066;-75
2021/08/11 03:15:32;;;;;;;7.50;4.63;;;15.90;94.10;;;;;;5055324;28;20084;-75
2021/08/11 03:17:58;;;;;;;8.50;4.15;;;15.90;94.10;;;;;;5055252;28;20059;-75
2021/08/11 03:20:24;;;;;;;8.25;4.80;;;15.90;94.10;;;;;;5054831;28;20040;-75
2021/08/11 03:22:50;;;;;;;8.15;4.55;;;15.90;94.10;;;;;;5055126;28;20025;-75
2021/08/11 03:25:16;;;;;;;7.82;3.92;;;15.90;94.10;;;;;;5054569;28;20049;-75
2021/08/11 03:27:41;;;;;;;9.80;5.13;;;15.90;94.10;;;;;;5054897;28;20017;-74
2021/08/11 03:30:09;;;;;;;8.90;4.60;;;15.90;94.10;;;;;;5054127;28;20021;-75
2021/08/11 03:32:34;;;;;;;9.23;4.82;;;15.90;94.10;;;;;;5053653;28;20017;-74
2021/08/11 03:35:00;;;;;;;10.57;4.65;;;15.90;94.00;;;;;;5054536;28;20028;-75
2021/08/11 03:37:26;;;;;;;7.65;4.43;;;15.90;94.00;;;;;;5053509;28;20023;-74
2021/08/11 03:39:52;;;;;;;7.82;4.35;;;15.90;94.00;;;;;;5039913;28;20428;-75
2021/08/11 03:42:17;;;;;;;8.68;3.83;;;15.90;94.00;;;;;;5033912;28;20432;-75
2021/08/11 03:44:43;;;;;;;8.70;4.32;;;15.90;94.00;;;;;;5032754;28;20022;-74
2021/08/11 03:47:08;;;;;;;8.52;4.45;;;15.90;94.00;;;;;;5033661;28;20075;-75
2021/08/11 03:49:34;;;;;;;8.77;4.28;;;15.90;94.10;;;;;;5033310;28;20067;-75
2021/08/11 03:52:00;;;;;;;10.07;4.63;;;15.90;94.10;;;;;;5034889;28;20047;-74
2021/08/11 03:54:25;;;;;;;8.55;4.40;;;15.90;94.10;;;;;;5033980;28;20025;-75
2021/08/11 03:56:51;;;;;;;11.23;5.00;;;15.90;94.10;;;;;;5034641;28;20060;-75
2021/08/11 03:59:18;;;;;;;9.20;4.00;;;15.80;94.10;;;;;;5032477;28;20021;-74
2021/08/11 04:01:43;;;;;;;9.60;4.43;;;15.80;94.10;;;;;;5034547;28;20044;-75
2021/08/11 04:04:09;;;;;;;10.55;4.78;;;15.80;94.10;;;;;;5033799;28;20104;-75
2021/08/11 04:06:34;;;;;;;7.72;4.38;;;15.80;94.10;;;;;;5034400;28;20025;-74
2021/08/11 04:09:00;;;;;;;7.82;4.13;;;15.80;94.10;;;;;;5034006;28;20018;-74
2021/08/11 04:11:26;;;;;;;8.93;4.38;;;15.80;94.10;;;;;;5033600;28;20084;-74
2021/08/11 04:13:52;;;;;;;8.32;4.45;;;15.70;94.10;;;;;;5049493;28;20091;-74
2021/08/11 04:16:17;;;;;;;8.57;4.53;;;15.70;94.10;;;;;;5033675;28;20480;-75
2021/08/11 04:18:43;;;;;;;8.32;4.57;;;15.70;94.40;;;;;;5032928;28;20105;-74
2021/08/11 04:21:09;;;;;;;10.20;5.05;;;15.70;94.20;;;;;;5032841;28;20477;-75
2021/08/11 04:23:34;;;;;;;7.85;4.80;;;15.70;94.20;;;;;;5034055;28;20447;-75
2021/08/11 04:26:00;;;;;;;8.98;4.38;;;15.70;94.20;;;;;;5034102;28;20076;-74
2021/08/11 04:28:26;;;;;;;8.60;4.38;;;15.70;94.20;;;;;;5033342;28;20026;-74
2021/08/11 04:30:52;;;;;;;8.73;5.50;;;15.70;94.20;;;;;;5033951;28;20078;-74
2021/08/11 04:33:18;;;;;;;11.35;5.85;;;15.70;94.20;;;;;;5033255;28;20068;-75
2021/08/11 04:35:44;;;;;;;11.25;6.00;;;15.70;94.20;;;;;;5049084;28;20017;-74
2021/08/11 04:38:10;;;;;;;7.90;4.80;;;15.70;94.20;;;;;;5033171;28;20028;-75
2021/08/11 04:40:39;;;;;;;10.18;5.15;;;15.70;94.20;;;;;;5033691;28;20033;-75
2021/08/11 04:43:06;;;;;;;11.40;5.15;;;15.80;94.10;;;;;;5048937;28;20048;-75
2021/08/11 04:45:35;;;;;;;11.25;4.72;;;15.80;94.10;;;;;;5032067;28;20036;-75
2021/08/11 04:48:01;;;;;;;9.25;4.82;;;15.80;94.10;;;;;;5045074;28;20028;-75
2021/08/11 04:50:26;;;;;;;10.32;5.03;;;15.80;94.10;;;;;;5063801;28;20028;-74
2021/08/11 04:52:52;;;;;;;9.60;5.13;;;15.90;94.10;;;;;;5054911;28;20484;-74
2021/08/11 04:55:17;;;;;;;10.35;5.30;;;15.90;94.10;;;;;;5052483;28;20100;-75
2021/08/11 04:57:43;;;;;;;10.00;5.63;;;15.90;94.10;;;;;;5053282;28;20043;-74
2021/08/11 05:00:09;;;;;;;11.23;6.22;;;16.00;94.00;;;;;;5052668;28;20074;-76
2021/08/11 05:02:37;;;;;;;16.95;6.60;;;16.00;94.00;;;;;;5053276;28;20025;-75
2021/08/11 05:05:04;;;;;;;18.20;7.28;;;16.00;94.00;;;;;;5053126;28;20116;-75
2021/08/11 05:07:29;;;;;;;16.13;7.20;;;16.10;94.00;;;;;;5052605;28;20025;-76
2021/08/11 05:09:55;;;;;;;15.70;6.40;;;16.20;94.00;;;;;;5052751;28;20024;-75
2021/08/11 05:12:21;;;;;;;16.92;6.97;;;16.20;93.90;;;;;;5052393;28;20070;-75
2021/08/11 05:14:47;;;;;;;16.92;7.43;;;16.30;93.90;;;;;;5051507;28;20017;-75
2021/08/11 05:17:12;;;;;;;14.65;7.18;;;16.30;93.90;;;;;;5052247;28;20036;-75
2021/08/11 05:19:38;;;;;;;17.52;7.53;;;16.40;94.00;;;;;;5052876;28;20056;-75
2021/08/11 05:22:04;;;;;;;18.77;7.68;;;16.40;94.00;;;;;;5052460;28;20460;-75
2021/08/11 05:24:29;;;;;;;16.30;6.75;;;16.40;94.00;;;;;;5050298;28;20041;-74
2021/08/11 05:26:55;;;;;;;20.63;8.10;;;16.40;94.10;;;;;;5048956;28;20056;-72
2021/08/11 05:29:23;;;;;;;21.45;8.13;;;16.50;94.10;;;;;;5049091;28;20028;-72
2021/08/11 05:31:49;;;;;;;13.23;6.68;;;16.50;94.20;;;;;;5049506;28;20021;-72
2021/08/11 05:34:14;;;;;;;15.50;7.18;;;16.50;94.20;;;;;;5049233;28;20150;-71
2021/08/11 05:36:40;;;;;;;12.70;6.95;;;16.50;94.20;;;;;;5050177;28;20071;-72
2021/08/11 05:39:06;;;;;;;12.55;5.93;;;16.60;94.30;;;;;;5049196;28;20039;-72
2021/08/11 05:41:31;;;;;;;13.60;6.68;;;16.60;94.30;;;;;;5048457;28;20481;-71
2021/08/11 05:43:57;;;;;;;12.38;6.72;;;16.60;94.30;;;;;;5049692;28;20481;-71
2021/08/11 05:46:23;;;;;;;18.00;7.85;;;16.60;94.40;;;;;;5067129;28;20358;-75
2021/08/11 05:48:48;;;;;;;11.07;6.53;;;16.60;94.40;;;;;;5052313;28;20032;-75
2021/08/11 05:51:14;;;;;;;12.20;6.95;;;16.60;94.40;;;;;;5051772;28;20424;-75
2021/08/11 05:53:40;;;;;;;11.70;6.38;;;16.60;94.40;;;;;;5051971;28;20107;-75
2021/08/11 05:56:06;;;;;;;13.00;7.07;;;16.70;94.40;;;;;;5051292;28;20090;-76
2021/08/11 05:58:32;;;;;;;13.50;7.22;;;16.70;94.50;;;;;;5050714;28;20028;-75
2021/08/11 06:00:58;;;;;;;14.02;7.60;;;16.70;94.50;;;;;;5050496;28;20029;-75
2021/08/11 06:03:24;;;;;;;13.40;7.10;;;16.70;94.50;;;;;;5051251;28;20366;-76
2021/08/11 06:05:50;;;;;;;14.57;7.95;;;16.70;94.50;;;;;;5052063;28;20029;-76
2021/08/11 06:08:15;;;;;;;13.38;6.60;;;16.70;94.50;;;;;;5051395;28;20025;-76
2021/08/11 06:10:41;;;;;;;14.13;7.63;;;16.60;94.50;;;;;;5052060;28;20021;-76
2021/08/11 06:13:07;;;;;;;14.32;7.13;;;16.60;94.80;;;;;;5051973;28;20025;-76
2021/08/11 06:15:32;;;;;;;13.45;7.70;;;16.50;94.60;;;;;;5051445;28;20477;-76
2021/08/11 06:17:58;;;;;;;10.90;6.60;;;16.50;94.70;;;;;;5051936;28;20029;-76
2021/08/11 06:20:24;;;;;;;12.10;6.82;;;16.50;94.70;;;;;;5051280;28;20125;-76
2021/08/11 06:22:51;;;;;;;12.23;7.15;;;16.40;94.70;;;;;;5050376;28;20024;-76
2021/08/11 06:25:17;;;;;;;13.60;7.40;;;16.50;94.80;;;;;;5050809;28;20045;-76
2021/08/11 06:27:42;;;;;;;14.13;7.70;;;16.50;94.90;;;;;;5051904;28;20410;-76
2021/08/11 06:30:10;;;;;;;13.52;6.55;;;16.50;94.90;;;;;;5051686;28;20025;-76
2021/08/11 06:32:35;;;;;;;13.65;7.07;;;16.50;94.90;;;;;;5051256;28;20100;-76
2021/08/11 06:35:01;;;;;;;13.00;7.03;;;16.60;94.90;;;;;;5052073;28;20053;-76
2021/08/11 06:37:27;;;;;;;12.15;6.10;;;16.60;94.80;;;;;;5051213;28;20025;-76
2021/08/11 06:39:52;;;;;;;13.70;6.97;;;16.60;94.70;;;;;;5051787;28;20079;-76
2021/08/11 06:42:18;;;;;;;12.75;6.50;;;16.60;94.70;;;;;;5051163;28;20036;-76
2021/08/11 06:44:43;;;;;;;12.55;6.68;;;16.70;94.70;;;;;;5054905;28;20025;-76
2021/08/11 06:47:09;;;;;;;13.90;7.07;;;16.70;94.70;;;;;;5055766;28;20025;-76
2021/08/11 06:49:35;;;;;;;13.35;6.95;;;16.80;94.70;;;;;;5054754;28;20025;-76
2021/08/11 06:52:00;;;;;;;10.65;5.70;;;16.80;94.60;;;;;;5056084;28;20040;-76
2021/08/11 06:54:26;;;;;;;9.90;5.90;;;16.90;94.70;;;;;;5054757;28;20032;-76
2021/08/11 06:56:53;;;;;;;12.80;6.88;;;16.90;94.60;;;;;;5055424;28;20066;-76
2021/08/11 06:59:18;;;;;;;12.15;7.28;;;17.00;94.60;;;;;;5055019;28;20471;-76
2021/08/11 07:01:44;;;;;;;13.00;6.30;;;17.00;94.60;;;;;;5055093;28;20028;-76
2021/08/11 07:04:10;;;;;;;10.68;5.50;;;17.00;94.60;;;;;;5055518;28;20345;-76
2021/08/11 07:06:38;;;;;;;10.40;5.93;;;17.10;94.60;;;;;;5054858;28;20439;-76
2021/08/11 07:09:04;;;;;;;9.23;5.10;;;17.10;94.60;;;;;;5054043;28;20372;-76
2021/08/11 07:11:30;;;;;;;12.68;6.63;;;17.20;94.60;;;;;;5054355;28;20035;-76
2021/08/11 07:13:55;;;;;;;10.63;6.05;;;17.20;94.50;;;;;;5055244;28;20052;-76
2021/08/11 07:16:21;;;;;;;9.45;5.10;;;17.20;94.50;;;;;;5054291;28;20108;-76
2021/08/11 07:18:46;;;;;;;10.90;6.75;;;17.30;94.50;;;;;;5054798;28;20025;-75
2021/08/11 07:21:12;;;;;;;10.93;6.05;;;17.30;94.50;;;;;;5053742;28;20071;-76
2021/08/11 07:23:38;;;;;;;11.05;5.53;;;17.40;94.40;;;;;;5053093;28;20493;-75
2021/08/11 07:26:03;;;;;;;12.27;6.35;;;17.50;94.40;;;;;;5053872;28;20564;-75
2021/08/11 07:28:29;;;;;;;10.48;5.63;;;17.50;94.40;;;;;;5053011;28;20025;-75
2021/08/11 07:30:55;;;;;;;14.90;6.07;;;17.60;94.30;;;;;;5054904;28;20024;-75
2021/08/11 07:33:23;;;;;;;10.88;5.65;;;17.60;94.30;;;;;;5069316;28;20380;-75
2021/08/11 07:35:48;;;;;;;10.40;4.60;;;17.70;94.20;;;;;;5054818;28;20017;-74
2021/08/11 07:38:16;;;;;;;13.50;6.85;;;17.70;94.20;;;;;;5054877;28;20086;-75
2021/08/11 07:40:42;;;;;;;5.57;2.90;;;17.70;94.20;;;;;;5054084;28;20029;-75
2021/08/11 07:43:08;;;;;;;8.73;4.63;;;17.80;94.20;;;;;;5054766;28;20017;-75
2021/08/11 07:45:34;;;;;;;12.02;6.18;;;17.80;94.10;;;;;;5054169;28;20373;-75
2021/08/11 07:48:00;;;;;;;9.48;5.70;;;17.90;94.10;;;;;;5054678;28;20025;-75
2021/08/11 07:50:28;;;;;;;13.02;7.07;;;18.00;94.10;;;;;;5052608;28;20378;-77
2021/08/11 07:52:55;;;;;;;11.40;6.13;;;18.00;93.90;;;;;;5054541;28;20113;-75
2021/08/11 07:55:21;;;;;;;11.63;6.13;;;18.10;93.90;;;;;;5051928;28;20441;-75
2021/08/11 07:57:47;;;;;;;9.10;5.45;;;18.10;93.90;;;;;;5054706;28;20063;-75
2021/08/11 08:00:15;;;;;;;10.63;5.45;;;18.10;93.80;;;;;;5054294;28;20060;-75
2021/08/11 08:02:41;;;;;;;11.65;5.68;;;18.20;93.80;;;;;;5053752;28;20051;-74
2021/08/11 08:05:07;;;;;;;9.77;5.05;;;18.30;93.70;;;;;;5054309;28;20453;-75
2021/08/11 08:07:33;;;;;;;8.98;5.07;;;18.30;93.60;;;;;;5053694;28;20492;-75
2021/08/11 08:10:00;;;;;;;8.05;4.45;;;18.40;93.50;;;;;;5054597;28;20033;-74
2021/08/11 08:12:25;;;;;;;15.38;6.70;;;18.50;93.40;;;;;;5053292;28;20063;-74
2021/08/11 08:14:51;;;;;;;8.90;4.10;;;18.50;93.30;;;;;;5054061;28;20404;-74
2021/08/11 08:17:17;;;;;;;16.08;7.13;;;18.60;93.20;;;;;;5054038;28;20100;-75
2021/08/11 08:19:42;;;;;;;15.60;6.70;;;18.70;93.00;;;;;;5051966;28;20024;-76
2021/08/11 08:22:08;;;;;;;12.02;5.78;;;18.70;92.90;;;;;;5053588;28;20541;-75
2021/08/11 08:24:33;;;;;;;9.25;5.90;;;18.80;92.90;;;;;;5052913;28;20098;-75
2021/08/11 08:27:00;;;;;;;11.82;6.43;;;18.80;92.80;;;;;;5053803;28;20070;-75
2021/08/11 08:29:26;;;;;;;12.50;7.15;;;19.00;92.70;;;;;;5053223;28;20032;-76
2021/08/11 08:31:51;;;;;;;9.25;5.10;;;19.00;92.50;;;;;;5053936;28;20021;-75
2021/08/11 08:34:17;;;;;;;14.93;6.95;;;19.10;92.40;;;;;;5053872;28;20021;-75
2021/08/11 08:36:43;;;;;;;10.07;5.32;;;19.20;92.30;;;;;;5052789;28;20131;-76
2021/08/11 08:39:09;;;;;;;10.95;5.65;;;19.30;92.20;;;;;;5053691;28;20456;-75
2021/08/11 08:41:35;;;;;;;16.02;7.93;;;19.40;92.40;;;;;;5052647;28;20106;-75
2021/08/11 08:44:01;;;;;;;16.98;6.28;;;19.50;91.90;;;;;;5053447;28;20067;-75
2021/08/11 08:46:27;;;;;;;14.75;7.25;;;19.60;91.80;;;;;;5052945;28;20521;-75
2021/08/11 08:48:54;;;;;;;11.15;6.47;;;19.70;91.70;;;;;;5053412;28;20019;-75
2021/08/11 08:51:22;;;;;;;10.63;5.88;;;19.70;91.50;;;;;;5051755;28;20183;-75
2021/08/11 08:53:48;;;;;;;12.30;6.40;;;19.80;91.50;;;;;;5053600;28;20021;-77
2021/08/11 08:56:15;;;;;;;8.23;4.60;;;19.90;91.50;;;;;;5051905;28;20086;-76
2021/08/11 08:58:42;;;;;;;12.02;6.43;;;20.00;91.40;;;;;;5052928;28;20075;-76
2021/08/11 09:01:08;;;;;;;13.40;5.95;;;20.10;91.30;;;;;;5068546;28;20465;-76
2021/08/11 09:03:34;;;;;;;13.60;6.43;;;20.10;91.10;;;;;;5052364;28;20074;-76
2021/08/11 09:06:00;;;;;;;11.45;6.30;;;20.10;91.10;;;;;;5051458;28;20126;-76
2021/08/11 09:08:26;;;;;;;13.10;5.78;;;20.10;91.20;;;;;;5051777;28;20120;-76
2021/08/11 09:10:51;;;;;;;14.65;7.30;;;20.10;91.20;;;;;;5052744;28;20206;-76
2021/08/11 09:13:20;;;;;;;12.02;6.03;;;20.10;91.20;;;;;;5052912;28;20017;-76
2021/08/11 09:15:50;;;;;;;12.10;6.32;;;20.10;91.20;;;;;;5052279;28;20472;-74
2021/08/11 09:18:20;;;;;;;9.82;4.72;;;20.00;91.20;;;;;;5051701;28;20350;-76
2021/08/11 09:21:10;;;;;;;8.35;4.25;;;19.90;91.30;;;;;;5051900;28;20424;-74
2021/08/11 09:23:37;;;;;;;17.02;7.43;;;19.90;91.40;;;;;;5052006;28;20045;-74
2021/08/11 09:26:05;;;;;;;12.20;5.88;;;19.80;91.40;;;;;;5052811;28;20079;-77
2021/08/11 09:28:38;;;;;;;12.50;6.85;;;19.70;91.50;;;;;;5050791;28;20031;-77
2021/08/11 09:31:24;;;;;;;11.40;6.00;;;19.80;91.50;;;;;;5052786;28;20320;-75
2021/08/11 09:33:52;;;;;;;12.82;5.30;;;19.80;91.50;;;;;;5051577;28;20388;-75
2021/08/11 09:36:18;;;;;;;9.48;4.78;;;19.80;91.50;;;;;;5052286;28;20101;-78
2021/08/11 09:38:54;;;;;;;11.88;5.78;;;19.80;91.60;;;;;;5051901;28;20048;-75
2021/08/11 09:41:19;;;;;;;11.75;5.25;;;19.80;91.60;;;;;;5052406;28;20037;-75
2021/08/11 09:43:45;;;;;;;12.43;7.35;;;19.90;91.50;;;;;;5051536;28;20527;-75
2021/08/11 09:46:11;;;;;;;11.80;6.30;;;20.00;91.50;;;;;;5052113;28;20027;-75
2021/08/11 09:48:42;;;;;;;10.75;5.50;;;20.10;91.40;;;;;;5051782;28;20056;-75
2021/08/11 09:51:10;;;;;;;8.98;4.93;;;20.20;91.20;;;;;;5051970;28;20083;-75
2021/08/11 09:53:38;;;;;;;9.70;6.20;;;20.30;91.10;;;;;;5050388;28;20376;-75
2021/08/11 09:56:05;;;;;;;11.48;5.60;;;20.40;91.00;;;;;;5052136;28;20488;-75
2021/08/11 09:58:39;;;;;;;9.38;4.68;;;20.60;90.80;;;;;;5051634;28;20044;-75
2021/08/11 10:01:16;;;;;;;8.80;5.07;;;20.70;90.50;;;;;;5052161;28;20449;-75
2021/08/11 10:04:01;;;;;;;11.40;6.47;;;20.80;90.40;;;;;;5050335;28;20025;-75
2021/08/11 10:06:34;;;;;;;11.13;6.60;;;20.90;90.10;;;;;;5052074;28;20032;-75
2021/08/11 10:09:18;;;;;;;10.95;5.55;;;20.90;90.00;;;;;;5052142;28;20021;-75
2021/08/11 10:11:52;;;;;;;9.43;5.60;;;20.90;89.50;;;;;;5051280;28;20029;-75
2021/08/11 10:14:23;;;;;;;9.75;5.32;;;21.10;88.90;;;;;;5051727;28;20035;-75
2021/08/11 10:16:50;;;;;;;7.93;4.00;;;21.10;87.60;;;;;;5051406;28;20271;-75
2021/08/11 10:19:16;;;;;;;9.73;5.13;;;21.10;88.40;;;;;;5051706;28;20021;-75
2021/08/11 10:21:57;;;;;;;9.43;5.15;;;21.10;88.40;;;;;;5051342;28;20469;-74
2021/08/11 10:24:23;;;;;;;9.75;5.70;;;21.20;88.00;;;;;;5053122;28;20056;-77
2021/08/11 10:26:51;;;;;;;8.05;4.28;;;21.30;87.50;;;;;;5051308;28;20017;-77
2021/08/11 10:29:17;;;;;;;7.00;4.10;;;21.30;87.40;;;;;;5051985;28;20032;-77
2021/08/11 10:31:43;;;;;;;7.80;4.18;;;21.40;87.00;;;;;;5051331;28;20040;-74
2021/08/11 10:34:12;;;;;;;7.20;4.10;;;21.50;86.10;;;;;;5052058;28;20021;-74
2021/08/11 10:36:42;;;;;;;8.50;5.03;;;21.60;85.90;;;;;;5051151;28;20029;-75
2021/08/11 10:39:08;;;;;;;7.30;4.80;;;21.60;85.30;;;;;;5051531;28;20033;-74
2021/08/11 10:41:35;;;;;;;9.10;5.07;;;21.70;85.60;;;;;;5051083;28;20033;-75
2021/08/11 10:44:03;;;;;;;7.95;4.82;;;21.60;84.80;;;;;;5051759;28;20029;-75
2021/08/11 10:46:43;;;;;;;7.18;4.45;;;21.70;84.90;;;;;;5051632;28;20040;-75
2021/08/11 10:49:19;;;;;;;7.18;4.85;;;21.70;85.00;;;;;;5051664;28;20112;-74
2021/08/11 10:51:47;;;;;;;7.90;4.57;;;21.80;85.00;;;;;;5049464;28;20094;-75
2021/08/11 10:54:13;;;;;;;6.13;3.38;;;21.80;84.90;;;;;;5050363;28;20350;-75
2021/08/11 10:56:51;;;;;;;7.70;4.20;;;21.80;85.00;;;;;;5051602;28;20092;-76
2021/08/11 10:59:23;;;;;;;9.45;4.80;;;21.90;84.70;;;;;;5053720;28;20377;-76
2021/08/11 11:01:49;;;;;;;5.57;3.15;;;22.00;84.50;;;;;;5054817;28;20105;-76
2021/08/11 11:04:37;;;;;;;4.70;2.63;;;22.10;84.40;;;;;;5051568;28;20036;-76
2021/08/11 11:07:12;;;;;;;3.92;2.72;;;22.20;84.10;;;;;;5051569;28;20021;-76
2021/08/11 11:09:39;;;;;;;4.18;2.25;;;22.40;83.40;;;;;;5051185;28;20025;-76
2021/08/11 11:12:27;;;;;;;4.35;2.60;;;22.30;83.10;;;;;;5051468;28;20443;-76
2021/08/11 11:14:56;;;;;;;9.10;3.40;;;22.20;83.30;;;;;;5044222;28;20524;-76
2021/08/11 11:17:33;;;;;;;6.30;3.45;;;22.20;83.40;;;;;;5051402;28;20017;-76
2021/08/11 11:20:07;;;;;;;5.80;3.15;;;22.10;83.40;;;;;;5050566;28;20134;-76
2021/08/11 11:22:46;;;;;;;5.07;2.50;;;22.00;83.50;;;;;;5051365;28;20029;-76
2021/08/11 11:25:15;;;;;;;6.47;3.22;;;21.90;83.70;;;;;;5051459;28;20056;-75
2021/08/11 11:27:41;;;;;;;4.03;2.42;;;21.80;83.90;;;;;;5050372;28;20036;-75
2021/08/11 11:30:13;;;;;;;4.30;2.40;;;21.70;83.90;;;;;;5052199;28;20021;-75
2021/08/11 11:32:39;;;;;;;4.70;2.75;;;21.60;83.90;;;;;;5054309;28;20020;-75
2021/08/11 11:35:22;;;;;;;4.50;2.70;;;21.70;83.80;;;;;;5054607;28;20025;-75
2021/08/11 11:38:07;;;;;;;4.60;2.50;;;21.80;83.60;;;;;;5054106;28;20021;-75
2021/08/11 11:40:53;;;;;;;5.28;2.65;;;21.90;82.90;;;;;;5054797;28;20029;-76
2021/08/11 11:43:25;;;;;;;4.85;3.20;;;22.00;82.70;;;;;;5054617;28;20025;-76
2021/08/11 11:45:51;;;;;;;4.57;2.70;;;22.10;82.30;;;;;;5054255;28;20488;-76
2021/08/11 11:48:17;;;;;;;5.30;3.13;;;22.20;82.20;;;;;;5054697;28;20101;-76
2021/08/11 11:50:45;;;;;;;5.40;3.10;;;22.30;82.30;;;;;;5053929;28;20100;-75
2021/08/11 11:53:26;;;;;;;6.68;3.40;;;22.40;82.00;;;;;;5054569;28;20100;-76
2021/08/11 11:55:52;;;;;;;;;;;22.40;81.70;;;;;;5054406;28;20017;-75
2021/08/11 11:58:27;;;;;;;5.90;2.85;;;22.40;82.00;;;;;;5054430;28;20011;-76
2021/08/11 12:01:04;;;;;;;5.88;3.35;;;22.40;82.00;;;;;;5052488;28;20033;-76
2021/08/11 12:03:41;;;;;;;6.10;2.85;;;22.60;81.20;;;;;;5052803;28;20013;-75
2021/08/11 12:06:08;;;;;;;5.03;3.20;;;22.60;81.00;;;;;;5054343;28;20101;-75
2021/08/11 12:08:35;;;;;;;7.35;3.78;;;22.60;80.70;;;;;;5054163;28;20112;-75
2021/08/11 12:11:12;;;;;;;5.10;3.40;;;22.60;80.20;;;;;;5053528;28;20037;-75
2021/08/11 12:13:50;;;;;;;5.60;3.42;;;22.60;80.10;;;;;;5053568;28;20115;-76
2021/08/11 12:16:17;;;;;;;7.10;2.90;;;22.60;80.00;;;;;;5054100;28;20100;-75
2021/08/11 12:18:48;;;;;;;4.60;3.10;;;22.60;80.00;;;;;;5053557;28;20032;-76
2021/08/11 12:21:16;;;;;;;5.28;2.58;;;22.80;80.40;;;;;;5052719;28;20484;-76
2021/08/11 12:23:42;;;;;;;5.22;2.97;;;23.00;79.30;;;;;;5053251;28;20041;-76
2021/08/11 12:26:14;;;;;;;6.75;2.60;;;23.20;78.60;;;;;;5054083;28;20095;-76
2021/08/11 12:28:50;;;;;;;5.40;2.83;;;23.30;78.10;;;;;;5053770;28;20104;-75
2021/08/11 12:31:22;;;;;;;6.70;3.95;;;23.30;78.10;;;;;;5053889;28;20021;-75
2021/08/11 12:33:52;;;;;;;7.13;4.10;;;23.30;76.00;;;;;;5053124;28;20021;-78
2021/08/11 12:36:23;;;;;;;5.10;2.97;;;23.30;75.40;;;;;;5053590;28;20025;-74
2021/08/11 12:38:57;;;;;;;;;;;23.40;75.40;;;;;;5053581;28;20096;-74
2021/08/11 12:41:24;;;;;;;7.03;3.65;;;23.50;74.90;;;;;;5056683;28;19912;-74
2021/08/11 12:43:53;;;;;;;7.10;4.22;;;23.60;74.10;;;;;;5053211;28;20025;-75
2021/08/11 12:46:38;;;;;;;5.40;3.50;;;23.50;72.90;;;;;;5053252;28;20610;-75
2021/08/11 12:49:13;;;;;;;4.93;3.13;;;23.60;73.50;;;;;;5054861;28;20025;-74
2021/08/11 12:51:39;;;;;;;4.97;3.38;;;23.50;72.70;;;;;;5053544;28;20029;-74